Jokkmokk, Sweden

2:41 PM CET on November 23, 2014 (GMT +0100)
Lappland | Change Station
CLOSE
Current Station
Personal Weather Station
Location: Jokkmokk, BD
Elevation: 850 ft
Nearby Weather Stations

Elev 850 ft 66.61 °N, 19.82 °E | Updated 9 seconds ago

Light Snow
Light Snow
14.4 °F
Feels Like 14 °F
N
2.7
Wind Variable Wind from NE
Gusts 2.7 mph

Today
High -- | Low -- °F
--% Chance of Precip.
Yesterday
High -- | Low -- °F
Precip. -- in
9:03 AM 1:47 PM
New Moon, 1% visible
Pressure 30.36 in
Visibility 6.2 miles
Clouds Mostly Cloudy 2900 ft
Overcast 4300 ft
Windchill 14 °F
Dew Point 12 °F
Humidity 88%
Rainfall 0.00 in
Snow Depth Not available.
UV 0 out of 12
Pollen Not available.
Air Quality Not available.
Flu Activity Not available.
METAR ESPE 231320Z AUTO 12002KT 9999NDV -SN BKN029/// OVC043/// M07/M08 Q1028

More Conditions Fewer Conditions

Pressure 30.36 in
Visibility 6.2 miles
Clouds Mostly Cloudy 2900 ft
Overcast 4300 ft
Windchill 14 °F
Dew Point 12 °F
Humidity 88%
Rainfall 0.00 in
Snow Depth Not available.
UV 0 out of 12
Pollen Not available.
Air Quality Not available.
Flu Activity Not available.
METAR ESPE 231320Z AUTO 12002KT 9999NDV -SN BKN029/// OVC043/// M07/M08 Q1028

More Conditions Fewer Conditions

10-Day Weather Forecast

Almanac

Astronomy

Nov. 23, 2014 Rise Set
Actual Time
Civil Twilight
Nautical Twilight
Astronomical Twilight
Moon
Length of Visible Light
Length of Day
Tomorrow will be .
, % of the Moon is Illuminated

Today's Extremes

Country Highs Country Lows

Community

WunderPhotos

Upload Photos

1,773,062 photos uploaded!

WunderBlogs® & News

Nearby

Air Quality

  Air Quality AQ Index Pollutant
Not available.

Snow Depth

Station Depth Elevation

Earthquake Activity

City Distance Mag. Time & Date
Minimum magnitude displayed is 2.5.

Coastal Water Temperatures

Place Temperature

Nearby Weather Stations